Time;durP1;ratioP1;P1;durP2;ratioP2;P2;SDS_P1;SDS_P2;PMS_P1;PMS_P2;Temp;Humidity;BMP_temperature;BMP_pressure;BME280_temperature;BME280_humidity;BME280_pressure;Samples;Min_cycle;Max_cycle;Signal;HPM_P1;HPM_P2
2023/07/04 00:01:13;;;;;;;2.83;1.10;;;17.10;61.10;;;;;;5055034;28;20047;-66
2023/07/04 00:03:40;;;;;;;4.75;0.93;;;17.10;61.10;;;;;;5072606;28;20033;-67
2023/07/04 00:06:10;;;;;;;4.90;1.10;;;17.00;61.00;;;;;;5054037;28;20059;-67
2023/07/04 00:08:36;;;;;;;3.42;1.00;;;17.00;61.10;;;;;;5055025;28;20089;-67
2023/07/04 00:11:04;;;;;;;3.47;0.70;;;17.00;61.10;;;;;;5054830;28;20047;-67
2023/07/04 00:13:31;;;;;;;4.85;1.58;;;17.00;61.20;;;;;;5054642;28;20052;-67
2023/07/04 00:15:57;;;;;;;4.40;1.40;;;17.00;61.30;;;;;;5054387;28;20059;-67
2023/07/04 00:18:25;;;;;;;2.63;0.80;;;17.00;61.20;;;;;;5054773;28;20500;-67
2023/07/04 00:20:54;;;;;;;3.35;1.05;;;17.00;61.20;;;;;;5054276;28;20072;-67
2023/07/04 00:23:25;;;;;;;3.92;1.60;;;17.00;61.30;;;;;;5053328;28;20399;-67
2023/07/04 00:25:52;;;;;;;3.55;1.13;;;17.00;61.40;;;;;;5054336;28;20080;-67
2023/07/04 00:28:21;;;;;;;4.18;1.00;;;16.90;61.30;;;;;;5047027;28;20040;-67
2023/07/04 00:30:47;;;;;;;4.70;1.20;;;16.90;61.40;;;;;;5037855;28;20128;-67
2023/07/04 00:33:13;;;;;;;2.70;1.05;;;16.90;61.40;;;;;;5072069;28;20047;-67
2023/07/04 00:35:40;;;;;;;3.28;0.80;;;16.90;61.50;;;;;;5054081;28;20113;-67
2023/07/04 00:38:06;;;;;;;5.57;1.27;;;16.90;61.60;;;;;;5037743;28;20044;-67
2023/07/04 00:40:32;;;;;;;2.33;1.00;;;16.90;61.90;;;;;;5054267;28;20487;-67
2023/07/04 00:43:03;;;;;;;4.55;1.35;;;16.90;62.10;;;;;;5054149;28;20041;-67
2023/07/04 00:45:38;;;;;;;3.80;0.90;;;16.90;62.10;;;;;;5047502;28;20036;-67
2023/07/04 00:48:05;;;;;;;4.72;1.30;;;16.80;62.40;;;;;;5064176;28;20037;-67
2023/07/04 00:50:35;;;;;;;1.60;0.70;;;16.80;62.50;;;;;;5054484;28;20381;-67
2023/07/04 00:53:07;;;;;;;3.95;0.90;;;16.80;62.50;;;;;;5054487;28;20025;-67
2023/07/04 00:55:37;;;;;;;4.07;1.10;;;16.80;62.50;;;;;;5054160;28;20102;-67
2023/07/04 00:58:04;;;;;;;3.40;1.30;;;16.80;62.50;;;;;;5054248;28;20115;-67
2023/07/04 01:00:31;;;;;;;1.90;0.85;;;16.80;62.60;;;;;;5054539;28;20133;-67
2023/07/04 01:03:11;;;;;;;6.18;1.50;;;16.80;62.70;;;;;;5054192;28;20492;-67
2023/07/04 01:05:56;;;;;;;3.60;1.20;;;16.80;62.80;;;;;;5053772;28;20036;-67
2023/07/04 01:08:32;;;;;;;4.30;1.08;;;16.80;63.10;;;;;;5053900;28;20515;-67
2023/07/04 01:11:02;;;;;;;3.95;1.20;;;16.70;63.00;;;;;;5054214;28;20689;-67
2023/07/04 01:13:36;;;;;;;3.00;0.73;;;16.80;63.20;;;;;;5046066;28;20556;-67
2023/07/04 01:16:03;;;;;;;3.03;1.20;;;16.80;63.10;;;;;;5053692;28;20044;-67
2023/07/04 01:18:30;;;;;;;5.50;1.48;;;16.70;63.20;;;;;;5050883;28;20037;-67
2023/07/04 01:20:58;;;;;;;3.90;1.13;;;16.70;63.30;;;;;;5058172;28;20049;-67
2023/07/04 01:23:40;;;;;;;4.72;1.40;;;16.70;63.50;;;;;;5057564;28;20503;-67
2023/07/04 01:26:15;;;;;;;1.58;0.65;;;16.70;63.80;;;;;;5057891;28;20032;-67
2023/07/04 01:28:41;;;;;;;3.15;1.17;;;16.70;63.80;;;;;;5057920;28;20123;-67
2023/07/04 01:31:07;;;;;;;5.80;1.35;;;16.70;63.70;;;;;;5075657;28;20550;-67
2023/07/04 01:33:33;;;;;;;2.72;1.10;;;16.70;63.70;;;;;;5057584;28;20444;-67
2023/07/04 01:35:59;;;;;;;3.28;1.67;;;16.70;63.80;;;;;;5040964;28;20120;-66
2023/07/04 01:38:25;;;;;;;5.95;1.60;;;16.70;63.90;;;;;;5057315;28;20037;-66
2023/07/04 01:40:51;;;;;;;3.97;1.30;;;16.60;64.20;;;;;;5040883;28;20468;-66
2023/07/04 01:43:17;;;;;;;4.20;1.35;;;16.60;64.40;;;;;;5056990;28;20089;-66
2023/07/04 01:45:45;;;;;;;5.68;1.80;;;16.60;64.50;;;;;;5041253;28;20048;-66
2023/07/04 01:48:12;;;;;;;6.40;1.85;;;16.60;64.90;;;;;;5057753;28;20048;-66
2023/07/04 01:50:38;;;;;;;5.15;1.67;;;16.60;65.00;;;;;;5041091;28;20048;-66
2023/07/04 01:53:04;;;;;;;6.35;1.83;;;16.50;64.80;;;;;;5056100;28;20029;-66
2023/07/04 01:55:29;;;;;;;6.55;2.17;;;16.60;65.00;;;;;;5057367;28;20372;-66
2023/07/04 01:57:57;;;;;;;5.20;2.00;;;16.50;65.50;;;;;;5057577;28;20040;-66
2023/07/04 02:00:23;;;;;;;4.15;1.50;;;16.50;65.80;;;;;;5057525;28;20055;-66
2023/07/04 02:02:49;;;;;;;4.75;1.48;;;16.50;66.40;;;;;;5056864;28;20036;-66
2023/07/04 02:05:19;;;;;;;6.55;2.17;;;16.50;66.00;;;;;;5057270;28;20072;-66
2023/07/04 02:07:46;;;;;;;4.70;1.95;;;16.40;66.20;;;;;;5041193;28;20040;-66
2023/07/04 02:10:11;;;;;;;7.47;2.25;;;16.40;66.60;;;;;;5056962;28;20040;-66
2023/07/04 02:12:37;;;;;;;7.47;1.95;;;16.30;66.90;;;;;;5056820;28;20047;-66
2023/07/04 02:15:03;;;;;;;8.40;1.83;;;16.30;67.00;;;;;;5056893;28;20152;-66
2023/07/04 02:17:29;;;;;;;6.82;2.22;;;16.30;67.00;;;;;;5057208;28;20099;-66
2023/07/04 02:19:55;;;;;;;4.82;1.73;;;16.20;66.90;;;;;;5040805;28;20040;-66
2023/07/04 02:22:21;;;;;;;5.88;1.73;;;16.20;67.00;;;;;;5057045;28;20487;-66
2023/07/04 02:24:46;;;;;;;5.88;2.10;;;16.20;67.00;;;;;;5052746;28;20043;-66
2023/07/04 02:27:12;;;;;;;8.63;1.88;;;16.20;67.00;;;;;;5057496;28;20462;-66
2023/07/04 02:29:38;;;;;;;6.40;2.05;;;16.10;67.10;;;;;;5056563;28;20083;-66
2023/07/04 02:32:04;;;;;;;4.93;1.52;;;16.10;67.20;;;;;;5057084;28;20044;-66
2023/07/04 02:34:30;;;;;;;8.65;2.22;;;16.10;67.20;;;;;;5056482;28;20075;-66
2023/07/04 02:36:55;;;;;;;4.32;2.00;;;16.10;67.40;;;;;;5056740;28;20036;-66
2023/07/04 02:39:21;;;;;;;7.18;2.00;;;16.10;67.50;;;;;;5039990;28;20045;-66
2023/07/04 02:41:50;;;;;;;5.82;1.77;;;16.10;67.60;;;;;;5056128;28;20044;-66
2023/07/04 02:44:15;;;;;;;6.47;2.35;;;16.00;67.70;;;;;;5056837;28;20036;-66
2023/07/04 02:46:41;;;;;;;4.75;1.33;;;16.00;67.90;;;;;;5039810;28;20487;-66
2023/07/04 02:49:06;;;;;;;7.88;2.25;;;16.00;67.70;;;;;;5056315;28;20045;-66
2023/07/04 02:51:35;;;;;;;4.10;1.40;;;16.00;67.70;;;;;;5056588;28;20032;-66
2023/07/04 02:54:01;;;;;;;3.55;1.30;;;16.00;67.70;;;;;;5040316;28;20033;-65
2023/07/04 02:56:27;;;;;;;5.47;1.63;;;16.00;67.60;;;;;;5056006;28;20051;-65
2023/07/04 02:58:52;;;;;;;4.25;1.73;;;15.90;67.70;;;;;;5056288;28;20119;-66
2023/07/04 03:01:18;;;;;;;6.35;2.53;;;15.90;68.20;;;;;;5056334;28;20041;-66
2023/07/04 03:03:44;;;;;;;7.10;2.25;;;15.90;68.40;;;;;;5056490;28;20051;-66
2023/07/04 03:06:10;;;;;;;7.25;1.73;;;15.90;68.70;;;;;;5049794;28;20518;-66
2023/07/04 03:08:35;;;;;;;6.55;2.25;;;15.90;68.80;;;;;;5056194;28;20097;-66
2023/07/04 03:11:01;;;;;;;6.93;2.42;;;15.90;68.60;;;;;;5055819;28;20119;-66
2023/07/04 03:13:27;;;;;;;9.18;2.42;;;15.90;68.80;;;;;;5055992;28;20068;-66
2023/07/04 03:15:52;;;;;;;5.35;2.10;;;15.90;69.20;;;;;;5055255;28;20106;-66
2023/07/04 03:18:18;;;;;;;7.03;2.15;;;15.80;69.40;;;;;;5056071;28;21717;-66
2023/07/04 03:20:44;;;;;;;8.60;2.75;;;15.80;69.50;;;;;;5055690;28;20044;-66
2023/07/04 03:23:09;;;;;;;7.93;2.50;;;15.80;69.50;;;;;;5055776;28;20075;-66
2023/07/04 03:25:35;;;;;;;4.63;1.83;;;15.80;69.70;;;;;;5055912;28;20127;-66
2023/07/04 03:28:01;;;;;;;4.50;2.00;;;15.80;69.80;;;;;;5039173;28;20395;-66
2023/07/04 03:30:27;;;;;;;8.23;2.42;;;15.70;69.70;;;;;;5073169;28;20254;-66
2023/07/04 03:32:52;;;;;;;8.20;2.53;;;15.70;69.80;;;;;;5055434;28;20036;-66
2023/07/04 03:35:18;;;;;;;7.68;2.67;;;15.70;70.00;;;;;;5073260;28;20032;-66
2023/07/04 03:37:44;;;;;;;7.35;2.67;;;15.70;70.30;;;;;;5072679;28;20068;-66
2023/07/04 03:40:11;;;;;;;8.35;3.05;;;15.70;70.60;;;;;;5054396;28;20043;-66
2023/07/04 03:42:38;;;;;;;8.65;2.45;;;15.70;70.80;;;;;;5055417;28;20076;-66
2023/07/04 03:45:06;;;;;;;5.50;1.90;;;15.60;70.80;;;;;;5054728;28;20052;-66
2023/07/04 03:47:32;;;;;;;7.07;2.60;;;15.60;70.70;;;;;;5055766;28;20048;-66
2023/07/04 03:49:58;;;;;;;6.82;2.00;;;15.60;70.70;;;;;;5071475;28;20045;-66
2023/07/04 03:52:24;;;;;;;9.98;2.65;;;15.60;70.80;;;;;;5055358;28;20041;-65
2023/07/04 03:54:50;;;;;;;7.18;2.55;;;15.60;70.90;;;;;;5055070;28;20045;-66
2023/07/04 03:57:16;;;;;;;6.95;1.85;;;15.60;71.20;;;;;;5055034;28;20040;-66
2023/07/04 03:59:42;;;;;;;7.90;2.53;;;15.60;70.90;;;;;;5055571;28;20385;-66
2023/07/04 04:02:09;;;;;;;6.40;2.20;;;15.60;71.00;;;;;;5055139;28;20044;-66
2023/07/04 04:04:38;;;;;;;7.60;2.60;;;15.60;71.20;;;;;;5055101;28;20407;-66
2023/07/04 04:07:07;;;;;;;7.88;2.03;;;15.60;71.40;;;;;;5037982;28;20044;-66
2023/07/04 04:09:34;;;;;;;7.78;2.83;;;15.60;71.60;;;;;;5055320;28;20075;-66
2023/07/04 04:12:01;;;;;;;6.30;2.45;;;15.60;72.00;;;;;;5054789;28;20127;-66
2023/07/04 04:14:29;;;;;;;4.68;2.35;;;15.60;72.10;;;;;;5054689;28;20609;-66
2023/07/04 04:16:55;;;;;;;5.45;2.13;;;15.60;72.00;;;;;;5037957;28;20373;-66
2023/07/04 04:19:21;;;;;;;4.85;1.55;;;15.60;72.10;;;;;;5055035;28;20044;-66
2023/07/04 04:21:47;;;;;;;9.52;3.03;;;15.60;71.80;;;;;;5054811;28;20036;-66
2023/07/04 04:24:13;;;;;;;7.40;2.80;;;15.60;72.00;;;;;;5054672;28;20102;-66
2023/07/04 04:26:40;;;;;;;6.05;2.03;;;15.60;72.50;;;;;;5054505;28;20101;-66
2023/07/04 04:29:06;;;;;;;6.60;1.80;;;15.60;72.50;;;;;;5038279;28;20040;-66
2023/07/04 04:31:38;;;;;;;7.35;2.55;;;15.60;72.60;;;;;;5054756;28;20116;-67
2023/07/04 04:34:05;;;;;;;9.30;2.50;;;15.60;72.50;;;;;;5054264;28;20115;-67
2023/07/04 04:36:31;;;;;;;8.13;2.03;;;15.60;72.70;;;;;;5054731;28;20507;-67
2023/07/04 04:38:59;;;;;;;6.05;2.40;;;15.70;72.70;;;;;;5037475;28;20093;-67
2023/07/04 04:41:29;;;;;;;5.45;1.95;;;15.70;72.70;;;;;;5054966;28;20360;-67
2023/07/04 04:43:59;;;;;;;5.78;2.15;;;15.70;73.20;;;;;;5037753;28;20036;-67
2023/07/04 04:46:25;;;;;;;4.70;2.20;;;15.70;72.90;;;;;;5052171;28;20083;-67
2023/07/04 04:48:54;;;;;;;6.95;1.92;;;15.70;72.80;;;;;;5054315;28;20119;-67
2023/07/04 04:51:22;;;;;;;8.00;2.33;;;15.70;72.70;;;;;;5054435;28;20131;-67
2023/07/04 04:53:48;;;;;;;12.00;2.63;;;15.70;72.70;;;;;;5038032;28;20476;-67
2023/07/04 04:56:14;;;;;;;9.15;2.30;;;15.70;72.60;;;;;;5053918;28;20119;-67
2023/07/04 04:58:43;;;;;;;5.50;1.80;;;15.80;72.70;;;;;;5054255;28;20036;-67
2023/07/04 05:01:25;;;;;;;5.75;1.58;;;15.80;72.60;;;;;;5054120;28;20045;-67
2023/07/04 05:03:55;;;;;;;8.30;2.30;;;15.80;72.40;;;;;;5053294;28;20044;-67
2023/07/04 05:06:23;;;;;;;4.18;1.40;;;15.80;72.40;;;;;;5052603;28;20128;-67
2023/07/04 05:08:51;;;;;;;3.83;1.70;;;15.80;72.10;;;;;;5054316;28;20053;-67
2023/07/04 05:11:17;;;;;;;4.30;1.70;;;15.90;72.20;;;;;;5053900;28;20048;-67
2023/07/04 05:13:47;;;;;;;5.72;1.73;;;15.90;72.40;;;;;;5071842;28;20032;-67
2023/07/04 05:16:16;;;;;;;5.38;1.73;;;15.90;72.40;;;;;;5034478;28;20052;-67
2023/07/04 05:18:43;;;;;;;6.25;1.70;;;15.90;72.40;;;;;;5036992;28;20033;-67
2023/07/04 05:21:18;;;;;;;4.93;1.65;;;15.90;72.50;;;;;;5053684;28;20086;-68
2023/07/04 05:23:45;;;;;;;5.25;1.80;;;15.90;72.40;;;;;;5053693;28;20048;-68
2023/07/04 05:26:15;;;;;;;5.80;1.80;;;15.90;72.40;;;;;;5072110;28;20416;-67
2023/07/04 05:28:41;;;;;;;5.60;1.92;;;15.90;72.50;;;;;;5054373;28;20041;-67
2023/07/04 05:31:10;;;;;;;3.53;1.50;;;15.90;72.30;;;;;;5053865;28;20040;-67
2023/07/04 05:36:23;;;;;;;7.38;1.52;;;16.00;72.20;;;;;;5052695;28;20040;-67
2023/07/04 05:38:50;;;;;;;4.57;1.25;;;16.00;72.00;;;;;;5045144;28;20118;-67
2023/07/04 05:41:18;;;;;;;4.55;2.03;;;16.00;71.90;;;;;;5053779;28;20040;-67
2023/07/04 05:43:44;;;;;;;4.22;1.52;;;16.10;72.00;;;;;;5053091;28;20044;-68
2023/07/04 05:46:11;;;;;;;5.57;1.73;;;16.10;72.10;;;;;;5053842;28;20121;-67
2023/07/04 05:48:38;;;;;;;5.80;1.63;;;16.20;72.20;;;;;;5053822;28;20040;-67
2023/07/04 05:51:06;;;;;;;3.83;1.27;;;16.20;72.10;;;;;;5053915;28;20472;-67
2023/07/04 05:53:34;;;;;;;4.97;1.92;;;16.20;72.20;;;;;;5053825;28;20043;-67
2023/07/04 05:56:07;;;;;;;9.02;1.40;;;16.30;72.30;;;;;;5053500;28;20506;-67
2023/07/04 05:58:34;;;;;;;5.97;1.20;;;16.40;72.80;;;;;;5053104;28;20134;-67
2023/07/04 06:01:27;;;;;;;4.45;1.25;;;16.50;72.60;;;;;;5053661;28;20036;-67
2023/07/04 06:03:54;;;;;;;5.57;1.02;;;16.60;71.50;;;;;;5046874;28;20731;-67
2023/07/04 06:06:40;;;;;;;4.13;1.10;;;16.70;71.10;;;;;;5040884;28;20044;-68
2023/07/04 06:09:13;;;;;;;5.57;1.75;;;16.80;70.60;;;;;;5040810;28;20105;-67
2023/07/04 06:11:45;;;;;;;4.10;1.30;;;16.90;70.50;;;;;;5057314;28;20036;-67
2023/07/04 06:14:16;;;;;;;4.10;1.40;;;17.00;70.40;;;;;;5054040;28;20496;-67
2023/07/04 06:16:42;;;;;;;4.93;1.42;;;17.10;69.80;;;;;;5053816;28;20037;-67
2023/07/04 06:19:08;;;;;;;5.07;1.35;;;17.10;69.70;;;;;;5037107;28;20124;-67
2023/07/04 06:21:35;;;;;;;3.75;1.20;;;17.10;69.90;;;;;;5053742;28;20036;-67
2023/07/04 06:24:00;;;;;;;103.95;19.08;;;17.30;70.10;;;;;;5053845;28;20080;-67
2023/07/04 06:26:30;;;;;;;21.52;5.15;;;17.30;69.90;;;;;;5053650;28;20080;-67
2023/07/04 06:28:55;;;;;;;91.93;15.77;;;17.40;69.90;;;;;;5054037;28;20040;-67
2023/07/04 06:31:21;;;;;;;8.10;2.22;;;17.40;69.60;;;;;;5053304;28;20451;-67
2023/07/04 06:33:47;;;;;;;5.32;1.30;;;17.50;69.20;;;;;;5053506;28;20037;-67
2023/07/04 06:36:14;;;;;;;7.90;2.05;;;17.50;69.00;;;;;;5036979;28;20094;-67
2023/07/04 06:38:40;;;;;;;3.67;1.33;;;17.50;68.60;;;;;;5053437;28;20041;-67
2023/07/04 06:41:09;;;;;;;4.38;1.45;;;17.50;68.50;;;;;;5053558;28;20075;-67
2023/07/04 06:43:36;;;;;;;4.38;1.42;;;17.60;68.10;;;;;;5053378;28;20049;-67
2023/07/04 06:46:02;;;;;;;8.43;1.88;;;17.70;67.80;;;;;;5053512;28;20043;-67
2023/07/04 06:48:29;;;;;;;4.13;1.40;;;17.70;66.80;;;;;;5053335;28;20065;-67
2023/07/04 06:51:03;;;;;;;4.28;1.38;;;17.80;67.00;;;;;;5045006;28;20047;-67
2023/07/04 06:53:29;;;;;;;;;;;17.80;67.20;;;;;;5053705;28;20044;-67
2023/07/04 06:56:04;;;;;;;5.88;1.85;;;17.80;67.30;;;;;;5054475;28;20269;-67
2023/07/04 06:58:30;;;;;;;5.93;1.40;;;17.90;68.10;;;;;;5053216;28;20043;-67
2023/07/04 07:00:56;;;;;;;5.22;1.50;;;18.00;67.30;;;;;;5052827;28;20116;-67
2023/07/04 07:03:22;;;;;;;3.50;1.20;;;18.00;67.30;;;;;;5054442;28;20041;-68
2023/07/04 07:05:47;;;;;;;5.55;1.52;;;18.10;66.80;;;;;;5052884;28;20119;-67
2023/07/04 07:08:16;;;;;;;5.57;1.70;;;18.20;66.10;;;;;;5052458;28;20052;-67
2023/07/04 07:10:55;;;;;;;6.05;1.58;;;18.20;66.00;;;;;;5053004;28;20052;-67
2023/07/04 07:13:21;;;;;;;5.18;1.40;;;18.30;65.60;;;;;;5045295;28;20047;-67
2023/07/04 07:15:46;;;;;;;7.72;1.83;;;18.20;65.50;;;;;;5051517;28;20045;-67
2023/07/04 07:18:12;;;;;;;4.47;1.48;;;18.30;65.50;;;;;;5052669;28;20123;-67
2023/07/04 07:20:38;;;;;;;3.92;1.48;;;18.30;64.90;;;;;;5053022;28;20102;-67
2023/07/04 07:23:03;;;;;;;5.22;1.52;;;18.30;64.50;;;;;;5035870;28;20468;-67
2023/07/04 07:25:29;;;;;;;8.63;2.17;;;18.20;64.60;;;;;;5045820;28;20037;-67
2023/07/04 07:27:55;;;;;;;6.80;1.65;;;18.20;64.80;;;;;;5053755;28;20033;-67
2023/07/04 07:30:20;;;;;;;5.40;1.63;;;18.20;64.90;;;;;;5052413;28;20079;-67
2023/07/04 07:32:46;;;;;;;5.53;1.52;;;18.30;64.70;;;;;;5035854;28;20071;-67
2023/07/04 07:35:12;;;;;;;4.72;1.30;;;18.30;64.50;;;;;;5035792;28;20048;-67
2023/07/04 07:37:38;;;;;;;3.72;1.08;;;18.40;64.60;;;;;;5052099;28;20049;-67
2023/07/04 07:40:04;;;;;;;4.88;1.42;;;18.50;64.30;;;;;;5052228;28;20068;-67
2023/07/04 07:42:31;;;;;;;6.55;1.60;;;18.50;64.20;;;;;;5052114;28;20052;-67
2023/07/04 07:44:56;;;;;;;6.30;1.83;;;18.60;63.70;;;;;;5052297;28;20032;-67
2023/07/04 07:47:22;;;;;;;6.72;1.63;;;18.70;62.90;;;;;;5052364;28;20049;-67
2023/07/04 07:49:48;;;;;;;4.85;1.60;;;18.80;62.80;;;;;;5052067;28;20055;-67
2023/07/04 07:52:14;;;;;;;5.43;1.77;;;18.90;62.40;;;;;;5052331;28;20047;-67
2023/07/04 07:54:39;;;;;;;5.43;1.77;;;19.00;61.80;;;;;;5051944;28;20392;-67
2023/07/04 07:57:06;;;;;;;8.15;2.10;;;19.10;61.70;;;;;;5050206;28;20155;-67
2023/07/04 07:59:32;;;;;;;4.93;1.88;;;19.10;61.30;;;;;;5052137;28;20557;-67
2023/07/04 08:01:58;;;;;;;5.68;1.58;;;19.30;60.80;;;;;;5051674;28;20076;-67
2023/07/04 08:04:25;;;;;;;7.28;1.52;;;19.30;61.00;;;;;;5052072;28;20061;-67
2023/07/04 08:06:51;;;;;;;6.00;1.60;;;19.40;59.90;;;;;;5053002;28;20033;-67
2023/07/04 08:09:19;;;;;;;8.75;2.08;;;19.50;59.20;;;;;;5051938;28;20508;-66
2023/07/04 08:11:45;;;;;;;5.00;1.73;;;19.60;58.70;;;;;;5051746;28;20033;-66
2023/07/04 08:14:15;;;;;;;6.55;1.80;;;19.60;58.80;;;;;;5051538;28;20089;-67
2023/07/04 08:16:50;;;;;;;9.88;2.10;;;19.70;58.20;;;;;;5051442;28;20048;-67
2023/07/04 08:19:18;;;;;;;7.38;1.90;;;19.70;57.20;;;;;;5051666;28;20072;-67
2023/07/04 08:21:45;;;;;;;6.60;1.88;;;19.80;56.60;;;;;;5051597;28;20051;-65
2023/07/04 08:24:12;;;;;;;6.00;2.10;;;19.80;56.50;;;;;;5034902;28;20495;-65
2023/07/04 08:26:40;;;;;;;6.20;1.75;;;19.80;56.30;;;;;;5051308;28;20063;-65
2023/07/04 08:29:07;;;;;;;6.55;1.70;;;19.80;56.50;;;;;;5052665;28;20123;-65
2023/07/04 08:31:33;;;;;;;6.78;1.98;;;19.80;56.50;;;;;;5052598;28;20041;-65
2023/07/04 08:33:59;;;;;;;8.15;2.13;;;19.80;56.60;;;;;;5051223;28;20472;-65
2023/07/04 08:36:25;;;;;;;6.97;1.92;;;19.80;55.90;;;;;;5051197;28;20037;-65
2023/07/04 08:38:51;;;;;;;6.70;2.10;;;19.80;55.60;;;;;;5051329;28;20048;-65
2023/07/04 08:41:23;;;;;;;6.88;2.03;;;19.80;54.90;;;;;;5051428;28;20040;-66
2023/07/04 08:44:20;;;;;;;7.25;2.03;;;19.90;54.50;;;;;;5051235;28;20041;-66
2023/07/04 08:46:54;;;;;;;7.35;2.03;;;19.90;54.20;;;;;;5050998;28;20045;-67
2023/07/04 08:49:35;;;;;;;6.22;1.98;;;19.80;54.10;;;;;;5050894;28;20045;-67
2023/07/04 08:52:23;;;;;;;7.53;1.98;;;19.80;54.20;;;;;;5051331;28;20045;-67
2023/07/04 08:54:50;;;;;;;7.85;2.20;;;19.80;54.00;;;;;;5050992;28;20047;-67
2023/07/04 08:57:33;;;;;;;7.82;1.85;;;19.80;54.00;;;;;;5051164;28;20040;-66
2023/07/04 09:00:20;;;;;;;8.57;2.63;;;19.80;53.60;;;;;;5050897;28;20133;-66
2023/07/04 09:02:58;;;;;;;6.85;2.28;;;19.80;53.90;;;;;;5034410;28;20059;-67
2023/07/04 09:05:36;;;;;;;8.95;2.40;;;19.90;54.10;;;;;;5034690;28;20044;-67
2023/07/04 09:08:13;;;;;;;8.40;1.90;;;19.80;54.20;;;;;;5050697;28;20120;-67
2023/07/04 09:10:45;;;;;;;8.95;2.63;;;19.90;53.80;;;;;;5051034;28;20041;-67
2023/07/04 09:13:26;;;;;;;8.52;2.13;;;19.80;54.00;;;;;;5051038;28;20385;-67
2023/07/04 09:15:54;;;;;;;7.50;2.42;;;19.80;53.10;;;;;;5050759;28;20508;-67
2023/07/04 09:18:47;;;;;;;6.32;2.38;;;19.80;53.10;;;;;;5050854;28;20041;-67
2023/07/04 09:21:19;;;;;;;6.25;2.45;;;19.80;53.40;;;;;;5034121;28;20049;-67
2023/07/04 09:23:46;;;;;;;9.88;2.42;;;19.80;53.80;;;;;;5050563;28;20041;-67
2023/07/04 09:26:16;;;;;;;9.15;2.38;;;19.90;54.30;;;;;;5050775;28;20040;-67
2023/07/04 09:28:45;;;;;;;6.68;2.30;;;19.90;54.50;;;;;;5050568;28;20404;-67
2023/07/04 09:31:33;;;;;;;8.77;2.60;;;20.00;54.60;;;;;;5050668;28;20871;-67
2023/07/04 09:34:03;;;;;;;8.80;2.42;;;20.20;54.30;;;;;;5034253;28;20033;-67
2023/07/04 09:36:35;;;;;;;9.45;1.90;;;20.30;53.60;;;;;;5050799;28;20045;-67
2023/07/04 09:39:04;;;;;;;8.05;1.80;;;20.50;53.20;;;;;;5052737;28;20111;-67
2023/07/04 09:41:33;;;;;;;7.88;2.13;;;20.60;52.70;;;;;;5054530;28;20049;-67
2023/07/04 09:44:11;;;;;;;8.20;2.55;;;20.60;52.20;;;;;;5055901;28;20112;-67
2023/07/04 09:46:38;;;;;;;7.57;1.70;;;20.70;51.30;;;;;;5054518;28;20508;-67
2023/07/04 09:49:30;;;;;;;8.32;1.85;;;20.70;51.40;;;;;;5054508;28;20116;-67
2023/07/04 09:51:58;;;;;;;12.50;2.35;;;20.80;50.80;;;;;;5051038;28;20051;-68
2023/07/04 09:54:24;;;;;;;6.07;1.48;;;20.80;50.40;;;;;;5055768;28;20048;-67
2023/07/04 09:56:50;;;;;;;6.57;2.03;;;20.90;50.10;;;;;;5055329;28;20045;-67
2023/07/04 09:59:21;;;;;;;7.07;1.58;;;21.00;49.50;;;;;;5054356;28;20041;-67
2023/07/04 10:01:50;;;;;;;9.70;2.05;;;21.10;49.50;;;;;;5037123;28;20036;-67
2023/07/04 10:04:36;;;;;;;7.22;2.10;;;21.20;49.60;;;;;;5055130;28;20113;-67
2023/07/04 10:07:10;;;;;;;7.18;2.20;;;21.30;49.30;;;;;;5054197;28;20075;-67
2023/07/04 10:09:43;;;;;;;12.45;2.17;;;21.30;49.20;;;;;;5054174;28;20084;-67
2023/07/04 10:12:14;;;;;;;6.23;1.70;;;21.40;49.70;;;;;;5054084;28;20554;-65
2023/07/04 10:14:49;;;;;;;7.82;1.92;;;21.60;49.40;;;;;;5054142;28;20049;-65
2023/07/04 10:17:37;;;;;;;6.15;1.73;;;21.70;49.20;;;;;;5053744;28;20209;-66
2023/07/04 10:20:12;;;;;;;6.90;2.15;;;22.00;48.60;;;;;;5037380;28;20076;-65
2023/07/04 10:22:43;;;;;;;6.72;1.67;;;22.20;47.70;;;;;;5054267;28;20044;-65
2023/07/04 10:25:15;;;;;;;6.72;2.03;;;22.30;46.80;;;;;;5053860;28;20055;-65
2023/07/04 10:27:45;;;;;;;6.15;2.70;;;22.50;45.80;;;;;;5053807;28;20041;-66
2023/07/04 10:30:15;;;;;;;6.75;1.55;;;22.60;45.40;;;;;;5050269;28;20630;-66
2023/07/04 10:32:48;;;;;;;6.68;2.08;;;22.70;45.30;;;;;;5053856;28;20033;-66
2023/07/04 10:35:22;;;;;;;9.73;2.30;;;22.80;44.50;;;;;;5052599;28;20083;-66
2023/07/04 10:37:53;;;;;;;6.10;1.70;;;22.90;44.00;;;;;;5053451;28;20036;-66
2023/07/04 10:40:20;;;;;;;5.07;1.77;;;23.00;44.10;;;;;;5037061;28;20441;-65
2023/07/04 10:42:55;;;;;;;7.35;2.17;;;23.00;43.90;;;;;;5053788;28;20427;-65
2023/07/04 10:45:23;;;;;;;6.78;2.03;;;23.10;43.10;;;;;;5053411;28;20103;-65
2023/07/04 10:47:52;;;;;;;5.95;1.85;;;23.10;42.20;;;;;;5047269;28;20048;-65
2023/07/04 10:50:24;;;;;;;7.43;1.85;;;23.00;42.10;;;;;;5053153;28;20366;-65
2023/07/04 10:52:49;;;;;;;5.25;1.45;;;23.00;42.80;;;;;;5045480;28;20569;-65
2023/07/04 10:55:28;;;;;;;6.60;2.25;;;22.90;43.00;;;;;;5053452;28;20033;-66
2023/07/04 10:58:07;;;;;;;6.53;2.03;;;22.90;43.00;;;;;;5053232;28;20037;-65
2023/07/04 11:00:52;;;;;;;6.82;2.10;;;23.00;43.50;;;;;;5053050;28;20047;-66
2023/07/04 11:03:41;;;;;;;7.30;2.50;;;23.00;43.20;;;;;;5053245;28;20118;-66
2023/07/04 11:06:13;;;;;;;6.28;1.98;;;23.10;42.80;;;;;;5047316;28;20056;-66
2023/07/04 11:08:41;;;;;;;7.40;2.10;;;23.10;41.70;;;;;;5053207;28;20049;-66
2023/07/04 11:11:09;;;;;;;5.72;2.17;;;23.20;41.90;;;;;;5052935;28;20492;-66
2023/07/04 11:13:45;;;;;;;7.40;1.90;;;23.20;42.00;;;;;;5054143;28;20108;-65
2023/07/04 11:16:12;;;;;;;8.23;1.95;;;23.30;42.20;;;;;;5054104;28;20455;-66
2023/07/04 11:18:39;;;;;;;6.18;1.75;;;23.30;41.40;;;;;;5036133;28;20512;-66
2023/07/04 11:21:08;;;;;;;5.22;1.70;;;23.50;40.40;;;;;;5051846;28;20080;-64
2023/07/04 11:23:47;;;;;;;8.55;2.72;;;23.50;40.40;;;;;;5050707;28;20471;-66
2023/07/04 11:26:13;;;;;;;8.85;2.47;;;23.50;40.60;;;;;;5051758;28;20045;-66
2023/07/04 11:28:39;;;;;;;6.95;2.08;;;23.50;40.70;;;;;;5053906;28;20044;-66
2023/07/04 11:31:25;;;;;;;6.07;2.00;;;23.40;40.30;;;;;;5048066;28;20049;-66
2023/07/04 11:33:54;;;;;;;5.07;1.60;;;23.40;40.90;;;;;;5046118;28;20104;-65
2023/07/04 11:36:53;;;;;;;8.68;2.55;;;23.30;40.90;;;;;;5052367;28;20056;-65
2023/07/04 11:39:30;;;;;;;7.32;2.13;;;23.40;41.00;;;;;;5051702;28;20052;-66
2023/07/04 11:41:57;;;;;;;8.10;2.53;;;23.30;41.10;;;;;;5035965;28;20547;-66
2023/07/04 11:44:31;;;;;;;5.22;2.03;;;23.30;41.20;;;;;;5052323;28;20040;-67
2023/07/04 11:47:00;;;;;;;9.02;2.38;;;23.40;41.20;;;;;;5052023;28;20120;-67
2023/07/04 11:49:28;;;;;;;6.65;2.03;;;23.40;40.30;;;;;;5052521;28;20479;-68
2023/07/04 11:52:24;;;;;;;8.13;2.20;;;23.50;39.90;;;;;;5051168;28;20500;-67
2023/07/04 11:55:05;;;;;;;7.40;2.38;;;23.50;40.40;;;;;;5052503;28;20476;-67
2023/07/04 11:57:56;;;;;;;7.43;1.85;;;23.50;40.70;;;;;;5052022;28;20496;-68
2023/07/04 12:00:43;;;;;;;5.68;2.03;;;23.50;40.90;;;;;;5052330;28;20411;-67
2023/07/04 12:03:19;;;;;;;5.68;1.75;;;23.50;41.40;;;;;;5031234;28;20052;-67
2023/07/04 12:05:48;;;;;;;5.57;1.95;;;23.40;41.50;;;;;;5051856;28;20116;-67
2023/07/04 12:08:20;;;;;;;7.00;2.13;;;23.40;41.40;;;;;;5044075;28;20488;-67
2023/07/04 12:10:47;;;;;;;5.28;1.75;;;23.40;40.80;;;;;;5051792;28;20051;-67
2023/07/04 12:13:18;;;;;;;7.93;2.05;;;23.40;40.70;;;;;;5051964;28;20140;-67
2023/07/04 12:15:49;;;;;;;7.68;1.50;;;23.40;40.50;;;;;;5051603;28;20052;-67
2023/07/04 12:18:21;;;;;;;8.80;2.20;;;23.30;40.90;;;;;;5043698;28;20106;-67
2023/07/04 12:20:47;;;;;;;4.82;1.60;;;23.40;40.30;;;;;;5028229;28;20701;-68
2023/07/04 12:23:15;;;;;;;5.20;1.92;;;23.40;40.00;;;;;;5045287;28;20049;-67
2023/07/04 12:25:44;;;;;;;6.07;2.00;;;23.40;39.90;;;;;;5044590;28;20033;-68
2023/07/04 12:28:12;;;;;;;5.03;1.73;;;23.50;39.70;;;;;;5045291;28;20049;-67
2023/07/04 12:30:39;;;;;;;5.78;1.75;;;23.40;40.20;;;;;;5061636;28;20052;-66
2023/07/04 12:33:06;;;;;;;5.97;1.80;;;23.40;40.00;;;;;;5044541;28;20033;-66
2023/07/04 12:35:37;;;;;;;8.07;1.90;;;23.40;39.80;;;;;;5044447;28;20075;-66
2023/07/04 12:38:03;;;;;;;5.35;1.52;;;23.40;40.20;;;;;;5045385;28;20037;-67
2023/07/04 12:40:31;;;;;;;5.45;2.42;;;23.40;40.10;;;;;;5044913;28;20415;-66
2023/07/04 12:43:05;;;;;;;5.45;1.88;;;23.40;40.40;;;;;;5045259;28;20128;-67
2023/07/04 12:45:31;;;;;;;6.97;1.80;;;23.40;40.40;;;;;;5045149;28;20033;-66
2023/07/04 12:48:02;;;;;;;7.35;2.08;;;23.40;40.50;;;;;;5045411;28;20115;-66
2023/07/04 12:50:30;;;;;;;5.57;1.90;;;23.40;41.00;;;;;;5044914;28;20040;-66
2023/07/04 12:52:55;;;;;;;5.40;1.75;;;23.40;41.00;;;;;;5027808;28;20399;-66
2023/07/04 12:55:27;;;;;;;7.63;2.50;;;23.50;41.30;;;;;;5044478;28;20037;-67
2023/07/04 12:57:54;;;;;;;7.75;2.20;;;23.50;41.00;;;;;;5045052;28;20029;-67
2023/07/04 13:00:29;;;;;;;8.90;2.47;;;23.60;40.90;;;;;;5044312;28;20051;-67
2023/07/04 13:02:58;;;;;;;7.18;2.00;;;23.70;40.50;;;;;;5043614;28;20506;-66